sensor_id;sensor_type;location;lat;lon;timestamp;temperature;humidity
19654;DHT22;9975;48.046;7.804;2023-03-13T01:59:30;11.70;98.80
19654;DHT22;9975;48.046;7.804;2023-03-13T02:01:59;11.70;99.50
19654;DHT22;9975;48.046;7.804;2023-03-13T02:04:29;11.70;98.50
19654;DHT22;9975;48.046;7.804;2023-03-13T02:06:59;11.80;97.20
19654;DHT22;9975;48.046;7.804;2023-03-13T02:09:28;11.90;96.20
19654;DHT22;9975;48.046;7.804;2023-03-13T02:14:28;12.00;95.90
19654;DHT22;9975;48.046;7.804;2023-03-13T02:16:55;12.00;95.40
19654;DHT22;9975;48.046;7.804;2023-03-13T02:19:34;12.00;95.40
19654;DHT22;9975;48.046;7.804;2023-03-13T02:22:13;12.10;95.10
19654;DHT22;9975;48.046;7.804;2023-03-13T02:28:09;12.20;94.70
19654;DHT22;9975;48.046;7.804;2023-03-13T02:30:37;12.20;95.00
19654;DHT22;9975;48.046;7.804;2023-03-13T02:33:04;12.20;94.70
19654;DHT22;9975;48.046;7.804;2023-03-13T02:35:30;12.20;94.60
19654;DHT22;9975;48.046;7.804;2023-03-13T02:37:59;12.20;94.70
19654;DHT22;9975;48.046;7.804;2023-03-13T02:40:32;12.20;94.70
19654;DHT22;9975;48.046;7.804;2023-03-13T02:43:01;12.20;94.80
19654;DHT22;9975;48.046;7.804;2023-03-13T02:45:27;12.30;94.90
19654;DHT22;9975;48.046;7.804;2023-03-13T02:47:53;12.20;95.00
19654;DHT22;9975;48.046;7.804;2023-03-13T02:50:19;12.10;95.10
19654;DHT22;9975;48.046;7.804;2023-03-13T02:52:48;12.10;95.50
19654;DHT22;9975;48.046;7.804;2023-03-13T02:55:19;12.10;95.50
19654;DHT22;9975;48.046;7.804;2023-03-13T02:57:47;12.00;95.70
19654;DHT22;9975;48.046;7.804;2023-03-13T03:00:13;12.10;95.60
19654;DHT22;9975;48.046;7.804;2023-03-13T03:02:41;12.00;95.90
19654;DHT22;9975;48.046;7.804;2023-03-13T03:05:07;12.10;96.20
19654;DHT22;9975;48.046;7.804;2023-03-13T03:07:33;12.00;96.50
19654;DHT22;9975;48.046;7.804;2023-03-13T03:09:59;12.00;96.90
19654;DHT22;9975;48.046;7.804;2023-03-13T03:12:25;12.00;97.30
19654;DHT22;9975;48.046;7.804;2023-03-13T03:14:50;11.80;97.60
19654;DHT22;9975;48.046;7.804;2023-03-13T03:17:16;11.80;98.10
19654;DHT22;9975;48.046;7.804;2023-03-13T03:19:42;11.70;98.60
19654;DHT22;9975;48.046;7.804;2023-03-13T03:22:07;11.70;99.20
19654;DHT22;9975;48.046;7.804;2023-03-13T03:24:33;11.70;99.60
19654;DHT22;9975;48.046;7.804;2023-03-13T03:26:58;11.60;99.90
19654;DHT22;9975;48.046;7.804;2023-03-13T03:29:24;11.50;99.90
19654;DHT22;9975;48.046;7.804;2023-03-13T03:31:50;11.40;99.90
19654;DHT22;9975;48.046;7.804;2023-03-13T03:34:15;11.40;99.90
19654;DHT22;9975;48.046;7.804;2023-03-13T03:36:41;11.50;99.90
19654;DHT22;9975;48.046;7.804;2023-03-13T03:39:07;11.30;99.90
19654;DHT22;9975;48.046;7.804;2023-03-13T03:41:32;11.30;99.90
19654;DHT22;9975;48.046;7.804;2023-03-13T03:43:58;11.30;99.90
19654;DHT22;9975;48.046;7.804;2023-03-13T03:46:23;11.20;99.90
19654;DHT22;9975;48.046;7.804;2023-03-13T03:48:49;11.30;99.90
19654;DHT22;9975;48.046;7.804;2023-03-13T03:51:15;11.00;99.90
19654;DHT22;9975;48.046;7.804;2023-03-13T03:53:40;11.10;99.90
19654;DHT22;9975;48.046;7.804;2023-03-13T03:56:06;11.00;99.90
19654;DHT22;9975;48.046;7.804;2023-03-13T03:58:32;11.00;99.90
19654;DHT22;9975;48.046;7.804;2023-03-13T04:00:58;10.80;99.90
19654;DHT22;9975;48.046;7.804;2023-03-13T04:03:24;10.70;99.90
19654;DHT22;9975;48.046;7.804;2023-03-13T04:05:50;10.70;99.90
19654;DHT22;9975;48.046;7.804;2023-03-13T04:08:16;10.80;99.90
19654;DHT22;9975;48.046;7.804;2023-03-13T04:10:41;10.70;99.90
19654;DHT22;9975;48.046;7.804;2023-03-13T04:13:08;10.70;99.90
19654;DHT22;9975;48.046;7.804;2023-03-13T04:15:34;10.80;99.90
19654;DHT22;9975;48.046;7.804;2023-03-13T04:17:59;10.90;99.90
19654;DHT22;9975;48.046;7.804;2023-03-13T04:20:25;10.90;99.90
19654;DHT22;9975;48.046;7.804;2023-03-13T04:22:53;11.00;99.90
19654;DHT22;9975;48.046;7.804;2023-03-13T04:25:18;11.00;99.90
19654;DHT22;9975;48.046;7.804;2023-03-13T04:27:44;11.10;99.90
19654;DHT22;9975;48.046;7.804;2023-03-13T04:30:10;11.20;99.90
19654;DHT22;9975;48.046;7.804;2023-03-13T04:35:02;11.30;99.90
19654;DHT22;9975;48.046;7.804;2023-03-13T04:37:27;11.40;99.90
19654;DHT22;9975;48.046;7.804;2023-03-13T04:39:53;11.30;99.90
19654;DHT22;9975;48.046;7.804;2023-03-13T04:42:18;11.40;99.90
19654;DHT22;9975;48.046;7.804;2023-03-13T04:44:44;11.40;99.90
19654;DHT22;9975;48.046;7.804;2023-03-13T04:47:09;11.40;99.90
19654;DHT22;9975;48.046;7.804;2023-03-13T04:49:35;11.40;99.90
19654;DHT22;9975;48.046;7.804;2023-03-13T04:52:01;11.40;99.90
19654;DHT22;9975;48.046;7.804;2023-03-13T04:54:26;11.50;99.90
19654;DHT22;9975;48.046;7.804;2023-03-13T04:56:52;11.50;99.90
19654;DHT22;9975;48.046;7.804;2023-03-13T04:59:18;11.40;99.90
19654;DHT22;9975;48.046;7.804;2023-03-13T05:01:43;11.40;99.90
19654;DHT22;9975;48.046;7.804;2023-03-13T05:04:09;11.40;99.90
19654;DHT22;9975;48.046;7.804;2023-03-13T05:06:36;11.30;99.90
19654;DHT22;9975;48.046;7.804;2023-03-13T05:09:03;11.20;99.90
19654;DHT22;9975;48.046;7.804;2023-03-13T05:11:29;11.20;99.90
19654;DHT22;9975;48.046;7.804;2023-03-13T05:13:55;11.10;99.90
19654;DHT22;9975;48.046;7.804;2023-03-13T05:16:20;11.00;99.90
19654;DHT22;9975;48.046;7.804;2023-03-13T05:21:12;10.90;99.90
19654;DHT22;9975;48.046;7.804;2023-03-13T05:23:38;10.90;99.90
19654;DHT22;9975;48.046;7.804;2023-03-13T05:26:04;10.90;99.90
19654;DHT22;9975;48.046;7.804;2023-03-13T05:28:30;10.90;99.90
19654;DHT22;9975;48.046;7.804;2023-03-13T05:30:55;10.90;99.90
19654;DHT22;9975;48.046;7.804;2023-03-13T05:33:21;10.90;99.90
19654;DHT22;9975;48.046;7.804;2023-03-13T05:35:47;10.90;99.90
19654;DHT22;9975;48.046;7.804;2023-03-13T05:38:13;10.90;99.90
19654;DHT22;9975;48.046;7.804;2023-03-13T05:40:39;11.00;99.90
19654;DHT22;9975;48.046;7.804;2023-03-13T05:43:04;11.00;99.90
19654;DHT22;9975;48.046;7.804;2023-03-13T05:45:30;11.00;99.90
19654;DHT22;9975;48.046;7.804;2023-03-13T05:47:56;11.00;99.90
19654;DHT22;9975;48.046;7.804;2023-03-13T05:50:23;11.00;99.90
19654;DHT22;9975;48.046;7.804;2023-03-13T05:52:49;11.00;99.90
19654;DHT22;9975;48.046;7.804;2023-03-13T05:55:15;11.00;99.90
19654;DHT22;9975;48.046;7.804;2023-03-13T05:57:44;11.10;99.90
19654;DHT22;9975;48.046;7.804;2023-03-13T06:00:10;11.10;99.90
19654;DHT22;9975;48.046;7.804;2023-03-13T06:02:36;11.10;99.90
19654;DHT22;9975;48.046;7.804;2023-03-13T06:07:28;11.10;99.90
19654;DHT22;9975;48.046;7.804;2023-03-13T06:09:53;11.00;99.90
19654;DHT22;9975;48.046;7.804;2023-03-13T06:14:45;11.10;99.90
19654;DHT22;9975;48.046;7.804;2023-03-13T06:17:10;11.10;99.90
19654;DHT22;9975;48.046;7.804;2023-03-13T06:19:36;11.20;99.90
19654;DHT22;9975;48.046;7.804;2023-03-13T06:22:02;11.20;99.90
19654;DHT22;9975;48.046;7.804;2023-03-13T06:24:27;11.10;99.90
19654;DHT22;9975;48.046;7.804;2023-03-13T06:26:53;11.20;99.90
19654;DHT22;9975;48.046;7.804;2023-03-13T06:29:19;11.30;99.90
19654;DHT22;9975;48.046;7.804;2023-03-13T06:31:44;11.30;99.90
19654;DHT22;9975;48.046;7.804;2023-03-13T06:34:11;11.30;99.90
19654;DHT22;9975;48.046;7.804;2023-03-13T06:36:37;11.40;99.90
19654;DHT22;9975;48.046;7.804;2023-03-13T06:39:03;11.40;99.90
19654;DHT22;9975;48.046;7.804;2023-03-13T06:41:29;11.40;99.90
19654;DHT22;9975;48.046;7.804;2023-03-13T06:43:54;11.60;99.90
19654;DHT22;9975;48.046;7.804;2023-03-13T06:46:22;11.60;99.90
19654;DHT22;9975;48.046;7.804;2023-03-13T06:48:49;11.70;99.90
19654;DHT22;9975;48.046;7.804;2023-03-13T06:51:17;11.70;99.90
19654;DHT22;9975;48.046;7.804;2023-03-13T06:53:43;11.90;99.90
19654;DHT22;9975;48.046;7.804;2023-03-13T06:56:09;11.90;99.90
19654;DHT22;9975;48.046;7.804;2023-03-13T06:58:35;12.00;99.90
19654;DHT22;9975;48.046;7.804;2023-03-13T07:01:11;12.00;99.90
19654;DHT22;9975;48.046;7.804;2023-03-13T07:03:37;12.10;99.90
19654;DHT22;9975;48.046;7.804;2023-03-13T07:06:04;12.10;99.90
19654;DHT22;9975;48.046;7.804;2023-03-13T07:08:30;12.20;99.90
19654;DHT22;9975;48.046;7.804;2023-03-13T07:11:02;12.30;99.90
19654;DHT22;9975;48.046;7.804;2023-03-13T07:13:28;12.40;99.90
19654;DHT22;9975;48.046;7.804;2023-03-13T07:15:54;12.50;99.90
19654;DHT22;9975;48.046;7.804;2023-03-13T07:18:21;12.60;99.90
19654;DHT22;9975;48.046;7.804;2023-03-13T07:20:54;12.60;99.90
19654;DHT22;9975;48.046;7.804;2023-03-13T07:23:21;12.70;99.90
19654;DHT22;9975;48.046;7.804;2023-03-13T07:26:01;12.80;99.90
19654;DHT22;9975;48.046;7.804;2023-03-13T07:28:28;12.70;99.90
19654;DHT22;9975;48.046;7.804;2023-03-13T07:31:01;12.90;99.90
19654;DHT22;9975;48.046;7.804;2023-03-13T07:33:27;12.80;99.90
19654;DHT22;9975;48.046;7.804;2023-03-13T07:35:53;12.90;99.90
19654;DHT22;9975;48.046;7.804;2023-03-13T07:38:19;12.90;99.90
19654;DHT22;9975;48.046;7.804;2023-03-13T07:40:52;13.00;99.90
19654;DHT22;9975;48.046;7.804;2023-03-13T07:43:18;13.10;99.90
19654;DHT22;9975;48.046;7.804;2023-03-13T07:48:21;13.40;99.90
19654;DHT22;9975;48.046;7.804;2023-03-13T07:50:47;13.50;99.90
19654;DHT22;9975;48.046;7.804;2023-03-13T07:53:14;13.50;99.90
19654;DHT22;9975;48.046;7.804;2023-03-13T07:55:54;13.70;99.90
19654;DHT22;9975;48.046;7.804;2023-03-13T07:58:21;13.70;99.90
19654;DHT22;9975;48.046;7.804;2023-03-13T08:00:47;13.80;99.90
19654;DHT22;9975;48.046;7.804;2023-03-13T08:03:12;13.90;99.90
19654;DHT22;9975;48.046;7.804;2023-03-13T08:05:38;13.90;99.90
19654;DHT22;9975;48.046;7.804;2023-03-13T08:08:04;14.10;99.90
19654;DHT22;9975;48.046;7.804;2023-03-13T08:10:30;14.30;99.90
19654;DHT22;9975;48.046;7.804;2023-03-13T08:12:56;14.20;99.90
19654;DHT22;9975;48.046;7.804;2023-03-13T08:15:21;14.30;99.90
19654;DHT22;9975;48.046;7.804;2023-03-13T08:17:51;14.50;99.90
19654;DHT22;9975;48.046;7.804;2023-03-13T08:20:17;14.60;99.90
19654;DHT22;9975;48.046;7.804;2023-03-13T08:22:46;14.70;99.90
19654;DHT22;9975;48.046;7.804;2023-03-13T08:25:13;14.90;99.90
19654;DHT22;9975;48.046;7.804;2023-03-13T08:27:38;14.90;99.90
19654;DHT22;9975;48.046;7.804;2023-03-13T08:30:04;15.00;99.90
19654;DHT22;9975;48.046;7.804;2023-03-13T08:32:35;15.00;99.90
19654;DHT22;9975;48.046;7.804;2023-03-13T08:35:01;14.90;99.90
19654;DHT22;9975;48.046;7.804;2023-03-13T08:37:26;14.70;99.90
19654;DHT22;9975;48.046;7.804;2023-03-13T08:39:52;14.90;99.90
19654;DHT22;9975;48.046;7.804;2023-03-13T08:42:21;15.00;99.90
19654;DHT22;9975;48.046;7.804;2023-03-13T08:44:47;15.10;99.90
19654;DHT22;9975;48.046;7.804;2023-03-13T08:47:12;15.10;99.90
19654;DHT22;9975;48.046;7.804;2023-03-13T08:49:38;15.00;99.90
19654;DHT22;9975;48.046;7.804;2023-03-13T08:52:04;15.20;99.90
19654;DHT22;9975;48.046;7.804;2023-03-13T08:54:30;15.40;99.90
19654;DHT22;9975;48.046;7.804;2023-03-13T08:56:56;15.50;99.90
19654;DHT22;9975;48.046;7.804;2023-03-13T08:59:22;15.50;99.90
19654;DHT22;9975;48.046;7.804;2023-03-13T09:01:47;15.70;99.90
19654;DHT22;9975;48.046;7.804;2023-03-13T09:04:13;15.90;99.90
19654;DHT22;9975;48.046;7.804;2023-03-13T09:06:39;16.20;99.90
19654;DHT22;9975;48.046;7.804;2023-03-13T09:09:06;16.40;99.90
19654;DHT22;9975;48.046;7.804;2023-03-13T09:11:32;16.50;99.90
19654;DHT22;9975;48.046;7.804;2023-03-13T09:13:58;16.50;99.50
19654;DHT22;9975;48.046;7.804;2023-03-13T09:16:26;16.50;98.60
19654;DHT22;9975;48.046;7.804;2023-03-13T09:18:52;16.50;99.00
19654;DHT22;9975;48.046;7.804;2023-03-13T09:21:23;16.60;98.10
19654;DHT22;9975;48.046;7.804;2023-03-13T09:23:49;16.70;97.60
19654;DHT22;9975;48.046;7.804;2023-03-13T09:26:16;16.80;97.70
19654;DHT22;9975;48.046;7.804;2023-03-13T09:28:43;17.10;96.90
19654;DHT22;9975;48.046;7.804;2023-03-13T09:31:17;17.50;97.00
19654;DHT22;9975;48.046;7.804;2023-03-13T09:33:43;17.60;95.20
19654;DHT22;9975;48.046;7.804;2023-03-13T09:36:10;17.60;94.80
19654;DHT22;9975;48.046;7.804;2023-03-13T09:38:37;17.70;93.80
19654;DHT22;9975;48.046;7.804;2023-03-13T09:47:01;18.30;94.00
19654;DHT22;9975;48.046;7.804;2023-03-13T09:49:33;18.80;91.50
19654;DHT22;9975;48.046;7.804;2023-03-13T09:52:24;18.70;91.80
19654;DHT22;9975;48.046;7.804;2023-03-13T09:57:27;18.80;89.70
19654;DHT22;9975;48.046;7.804;2023-03-13T10:02:46;18.50;89.40
19654;DHT22;9975;48.046;7.804;2023-03-13T10:05:42;18.40;90.00
19654;DHT22;9975;48.046;7.804;2023-03-13T10:08:15;18.50;90.20
19654;DHT22;9975;48.046;7.804;2023-03-13T10:14:06;18.60;88.90
19654;DHT22;9975;48.046;7.804;2023-03-13T10:16:49;18.60;88.20
19654;DHT22;9975;48.046;7.804;2023-03-13T10:19:31;18.50;89.00
19654;DHT22;9975;48.046;7.804;2023-03-13T10:22:01;18.40;89.10
19654;DHT22;9975;48.046;7.804;2023-03-13T10:27:13;18.70;87.60
19654;DHT22;9975;48.046;7.804;2023-03-13T10:29:39;18.70;88.40
19654;DHT22;9975;48.046;7.804;2023-03-13T10:32:07;18.70;88.80
19654;DHT22;9975;48.046;7.804;2023-03-13T10:37:19;19.60;85.50
19654;DHT22;9975;48.046;7.804;2023-03-13T10:39:46;19.70;86.70
19654;DHT22;9975;48.046;7.804;2023-03-13T10:42:27;19.70;84.70
19654;DHT22;9975;48.046;7.804;2023-03-13T10:45:04;19.60;83.50
19654;DHT22;9975;48.046;7.804;2023-03-13T10:47:34;19.70;84.40
19654;DHT22;9975;48.046;7.804;2023-03-13T10:50:01;19.90;82.10
19654;DHT22;9975;48.046;7.804;2023-03-13T10:52:42;20.00;82.60
19654;DHT22;9975;48.046;7.804;2023-03-13T10:55:15;20.70;79.50
19654;DHT22;9975;48.046;7.804;2023-03-13T10:57:42;20.90;77.40
19654;DHT22;9975;48.046;7.804;2023-03-13T11:02:53;21.00;74.70
19654;DHT22;9975;48.046;7.804;2023-03-13T11:07:49;21.00;76.40
19654;DHT22;9975;48.046;7.804;2023-03-13T11:10:28;21.10;74.90
19654;DHT22;9975;48.046;7.804;2023-03-13T11:12:56;21.40;74.30
19654;DHT22;9975;48.046;7.804;2023-03-13T11:15:44;21.60;71.40
19654;DHT22;9975;48.046;7.804;2023-03-13T11:18:22;21.50;70.30
19654;DHT22;9975;48.046;7.804;2023-03-13T11:20:51;21.60;71.00
19654;DHT22;9975;48.046;7.804;2023-03-13T11:23:20;21.80;67.90
19654;DHT22;9975;48.046;7.804;2023-03-13T11:26:10;21.80;68.20
19654;DHT22;9975;48.046;7.804;2023-03-13T11:31:46;22.10;65.90
19654;DHT22;9975;48.046;7.804;2023-03-13T11:34:51;21.90;65.90
19654;DHT22;9975;48.046;7.804;2023-03-13T11:37:18;22.30;64.40
19654;DHT22;9975;48.046;7.804;2023-03-13T11:45:29;22.20;63.60
19654;DHT22;9975;48.046;7.804;2023-03-13T11:56:14;22.50;60.90
19654;DHT22;9975;48.046;7.804;2023-03-13T12:01:39;22.40;60.20
19654;DHT22;9975;48.046;7.804;2023-03-13T12:04:19;22.40;59.90
19654;DHT22;9975;48.046;7.804;2023-03-13T12:06:59;22.20;60.20
19654;DHT22;9975;48.046;7.804;2023-03-13T12:12:37;22.20;60.40
19654;DHT22;9975;48.046;7.804;2023-03-13T12:15:17;22.40;60.00
19654;DHT22;9975;48.046;7.804;2023-03-13T12:18:00;22.40;60.70
19654;DHT22;9975;48.046;7.804;2023-03-13T12:21:06;22.50;60.30
19654;DHT22;9975;48.046;7.804;2023-03-13T12:26:46;22.60;60.20
19654;DHT22;9975;48.046;7.804;2023-03-13T12:29:27;22.80;58.00
19654;DHT22;9975;48.046;7.804;2023-03-13T12:32:11;22.90;58.50
19654;DHT22;9975;48.046;7.804;2023-03-13T12:43:10;23.30;58.30
19654;DHT22;9975;48.046;7.804;2023-03-13T12:59:43;23.30;55.10
19654;DHT22;9975;48.046;7.804;2023-03-13T13:02:19;23.40;55.90
19654;DHT22;9975;48.046;7.804;2023-03-13T13:04:47;23.20;55.70
19654;DHT22;9975;48.046;7.804;2023-03-13T13:07:34;23.20;55.90
19654;DHT22;9975;48.046;7.804;2023-03-13T13:12:38;23.20;56.40
19654;DHT22;9975;48.046;7.804;2023-03-13T13:15:15;23.20;55.60
19654;DHT22;9975;48.046;7.804;2023-03-13T13:18:02;23.00;55.70
19654;DHT22;9975;48.046;7.804;2023-03-13T13:20:37;22.80;56.50
19654;DHT22;9975;48.046;7.804;2023-03-13T13:23:21;23.00;57.20
19654;DHT22;9975;48.046;7.804;2023-03-13T13:25:48;23.00;57.80
19654;DHT22;9975;48.046;7.804;2023-03-13T13:30:49;23.30;55.40
19654;DHT22;9975;48.046;7.804;2023-03-13T13:38:45;22.80;55.90
19654;DHT22;9975;48.046;7.804;2023-03-13T13:43:45;22.80;55.80
19654;DHT22;9975;48.046;7.804;2023-03-13T13:48:43;22.80;56.40
19654;DHT22;9975;48.046;7.804;2023-03-13T13:53:55;22.50;55.30
19654;DHT22;9975;48.046;7.804;2023-03-13T13:56:30;22.50;55.70
19654;DHT22;9975;48.046;7.804;2023-03-13T14:04:37;22.60;56.20
19654;DHT22;9975;48.046;7.804;2023-03-13T14:07:05;22.60;56.10
19654;DHT22;9975;48.046;7.804;2023-03-13T14:12:31;22.20;55.40
19654;DHT22;9975;48.046;7.804;2023-03-13T14:15:12;22.20;55.50
19654;DHT22;9975;48.046;7.804;2023-03-13T14:20:37;22.20;55.80
19654;DHT22;9975;48.046;7.804;2023-03-13T14:23:12;22.10;56.30
19654;DHT22;9975;48.046;7.804;2023-03-13T14:25:45;22.30;56.10
19654;DHT22;9975;48.046;7.804;2023-03-13T14:28:24;22.80;55.60
19654;DHT22;9975;48.046;7.804;2023-03-13T14:30:52;23.30;55.00
19654;DHT22;9975;48.046;7.804;2023-03-13T14:33:18;23.20;55.50
19654;DHT22;9975;48.046;7.804;2023-03-13T14:35:45;23.30;54.50
19654;DHT22;9975;48.046;7.804;2023-03-13T14:38:23;23.60;54.00
19654;DHT22;9975;48.046;7.804;2023-03-13T14:40:50;23.50;53.90
19654;DHT22;9975;48.046;7.804;2023-03-13T14:43:29;23.50;52.60
19654;DHT22;9975;48.046;7.804;2023-03-13T14:45:55;23.50;53.40
19654;DHT22;9975;48.046;7.804;2023-03-13T14:48:32;23.50;53.90
19654;DHT22;9975;48.046;7.804;2023-03-13T14:51:03;23.80;53.10
19654;DHT22;9975;48.046;7.804;2023-03-13T14:53:32;24.00;52.90
19654;DHT22;9975;48.046;7.804;2023-03-13T14:58:35;24.30;51.90
19654;DHT22;9975;48.046;7.804;2023-03-13T15:01:24;24.50;51.70
19654;DHT22;9975;48.046;7.804;2023-03-13T15:03:50;24.80;51.50
19654;DHT22;9975;48.046;7.804;2023-03-13T15:06:19;24.80;49.60
19654;DHT22;9975;48.046;7.804;2023-03-13T15:08:48;24.90;50.30
19654;DHT22;9975;48.046;7.804;2023-03-13T15:11:40;25.00;50.70
19654;DHT22;9975;48.046;7.804;2023-03-13T15:14:57;25.20;50.10
19654;DHT22;9975;48.046;7.804;2023-03-13T15:17:46;25.40;49.30
19654;DHT22;9975;48.046;7.804;2023-03-13T15:20:12;24.90;46.70
19654;DHT22;9975;48.046;7.804;2023-03-13T15:22:41;24.50;45.00
19654;DHT22;9975;48.046;7.804;2023-03-13T15:25:18;24.50;46.30
19654;DHT22;9975;48.046;7.804;2023-03-13T15:27:45;24.40;45.20
19654;DHT22;9975;48.046;7.804;2023-03-13T15:30:19;24.40;44.70
19654;DHT22;9975;48.046;7.804;2023-03-13T15:32:45;24.40;45.50
19654;DHT22;9975;48.046;7.804;2023-03-13T15:37:46;24.30;44.50
19654;DHT22;9975;48.046;7.804;2023-03-13T15:40:15;23.90;44.90
19654;DHT22;9975;48.046;7.804;2023-03-13T15:42:41;23.90;45.80
19654;DHT22;9975;48.046;7.804;2023-03-13T15:45:07;23.90;45.70
19654;DHT22;9975;48.046;7.804;2023-03-13T15:47:33;24.10;44.80
19654;DHT22;9975;48.046;7.804;2023-03-13T15:49:59;24.10;45.50
19654;DHT22;9975;48.046;7.804;2023-03-13T15:52:24;24.50;44.10
19654;DHT22;9975;48.046;7.804;2023-03-13T15:54:50;24.10;43.20
19654;DHT22;9975;48.046;7.804;2023-03-13T15:57:26;24.10;42.20
19654;DHT22;9975;48.046;7.804;2023-03-13T15:59:52;23.90;42.50
19654;DHT22;9975;48.046;7.804;2023-03-13T16:02:22;23.50;42.00
19654;DHT22;9975;48.046;7.804;2023-03-13T16:04:49;23.40;42.60
19654;DHT22;9975;48.046;7.804;2023-03-13T16:07:18;23.10;43.50
19654;DHT22;9975;48.046;7.804;2023-03-13T16:09:44;22.90;43.90
19654;DHT22;9975;48.046;7.804;2023-03-13T16:12:11;23.10;44.20
19654;DHT22;9975;48.046;7.804;2023-03-13T16:14:37;23.00;44.50
19654;DHT22;9975;48.046;7.804;2023-03-13T16:17:16;22.90;43.60
19654;DHT22;9975;48.046;7.804;2023-03-13T16:19:43;22.70;42.50
19654;DHT22;9975;48.046;7.804;2023-03-13T16:22:09;22.70;43.00
19654;DHT22;9975;48.046;7.804;2023-03-13T16:24:35;22.60;42.70
19654;DHT22;9975;48.046;7.804;2023-03-13T16:27:00;22.50;42.70
19654;DHT22;9975;48.046;7.804;2023-03-13T16:29:26;22.50;42.70
19654;DHT22;9975;48.046;7.804;2023-03-13T16:31:52;22.40;42.60
19654;DHT22;9975;48.046;7.804;2023-03-13T16:34:17;22.20;42.60
19654;DHT22;9975;48.046;7.804;2023-03-13T16:36:43;22.20;43.00
19654;DHT22;9975;48.046;7.804;2023-03-13T16:39:14;22.10;43.10
19654;DHT22;9975;48.046;7.804;2023-03-13T16:41:39;21.90;43.10
19654;DHT22;9975;48.046;7.804;2023-03-13T16:44:05;21.90;43.30
19654;DHT22;9975;48.046;7.804;2023-03-13T16:46:39;21.90;43.90
19654;DHT22;9975;48.046;7.804;2023-03-13T16:49:06;21.80;43.60
19654;DHT22;9975;48.046;7.804;2023-03-13T16:51:32;21.70;44.10
19654;DHT22;9975;48.046;7.804;2023-03-13T16:53:59;21.70;44.00
19654;DHT22;9975;48.046;7.804;2023-03-13T16:58:58;21.70;43.40
19654;DHT22;9975;48.046;7.804;2023-03-13T17:01:26;21.70;44.00
19654;DHT22;9975;48.046;7.804;2023-03-13T17:03:53;21.60;43.60
19654;DHT22;9975;48.046;7.804;2023-03-13T17:06:25;21.50;43.30
19654;DHT22;9975;48.046;7.804;2023-03-13T17:11:18;21.60;43.60
19654;DHT22;9975;48.046;7.804;2023-03-13T17:13:47;21.50;43.60
19654;DHT22;9975;48.046;7.804;2023-03-13T17:16:16;21.50;44.10
19654;DHT22;9975;48.046;7.804;2023-03-13T17:18:43;21.50;43.70
19654;DHT22;9975;48.046;7.804;2023-03-13T17:21:18;21.50;43.60
19654;DHT22;9975;48.046;7.804;2023-03-13T17:23:44;21.40;44.10
19654;DHT22;9975;48.046;7.804;2023-03-13T17:26:21;21.40;43.80
19654;DHT22;9975;48.046;7.804;2023-03-13T17:28:48;21.40;44.00
19654;DHT22;9975;48.046;7.804;2023-03-13T17:31:15;21.20;44.00
19654;DHT22;9975;48.046;7.804;2023-03-13T17:33:41;21.10;44.00
19654;DHT22;9975;48.046;7.804;2023-03-13T17:36:26;21.00;44.40
19654;DHT22;9975;48.046;7.804;2023-03-13T17:38:57;20.90;44.50
19654;DHT22;9975;48.046;7.804;2023-03-13T17:41:25;20.90;44.30
19654;DHT22;9975;48.046;7.804;2023-03-13T17:43:51;20.90;44.20
19654;DHT22;9975;48.046;7.804;2023-03-13T17:49:06;20.90;43.90
19654;DHT22;9975;48.046;7.804;2023-03-13T17:51:33;21.00;44.00
19654;DHT22;9975;48.046;7.804;2023-03-13T17:54:00;20.90;44.40
19654;DHT22;9975;48.046;7.804;2023-03-13T17:56:28;20.90;44.30
19654;DHT22;9975;48.046;7.804;2023-03-13T17:58:56;20.90;46.20
19654;DHT22;9975;48.046;7.804;2023-03-13T18:01:25;20.70;48.50
19654;DHT22;9975;48.046;7.804;2023-03-13T18:06:23;20.30;49.70
19654;DHT22;9975;48.046;7.804;2023-03-13T18:08:51;20.20;49.90
19654;DHT22;9975;48.046;7.804;2023-03-13T18:11:17;20.20;50.40
19654;DHT22;9975;48.046;7.804;2023-03-13T18:13:46;20.00;50.90
19654;DHT22;9975;48.046;7.804;2023-03-13T18:16:33;20.00;51.20
19654;DHT22;9975;48.046;7.804;2023-03-13T18:19:07;20.00;51.10
19654;DHT22;9975;48.046;7.804;2023-03-13T18:21:33;20.00;51.60
19654;DHT22;9975;48.046;7.804;2023-03-13T18:24:00;19.90;50.10
19654;DHT22;9975;48.046;7.804;2023-03-13T18:28:55;19.80;50.00
19654;DHT22;9975;48.046;7.804;2023-03-13T18:31:28;19.70;50.60
19654;DHT22;9975;48.046;7.804;2023-03-13T18:33:56;19.60;49.70
19654;DHT22;9975;48.046;7.804;2023-03-13T18:38:48;19.60;46.90
19654;DHT22;9975;48.046;7.804;2023-03-13T18:41:14;19.60;47.40
19654;DHT22;9975;48.046;7.804;2023-03-13T18:43:41;19.60;47.30
19654;DHT22;9975;48.046;7.804;2023-03-13T18:46:23;19.60;46.90
19654;DHT22;9975;48.046;7.804;2023-03-13T18:48:50;19.50;46.80
19654;DHT22;9975;48.046;7.804;2023-03-13T18:51:17;19.50;46.70
19654;DHT22;9975;48.046;7.804;2023-03-13T18:53:44;19.50;47.10
19654;DHT22;9975;48.046;7.804;2023-03-13T18:58:47;19.50;47.80
19654;DHT22;9975;48.046;7.804;2023-03-13T19:01:16;18.80;55.70
19654;DHT22;9975;48.046;7.804;2023-03-13T19:03:42;18.40;59.10
19654;DHT22;9975;48.046;7.804;2023-03-13T19:06:26;18.40;63.80
19654;DHT22;9975;48.046;7.804;2023-03-13T19:08:55;17.90;69.50
19654;DHT22;9975;48.046;7.804;2023-03-13T19:11:23;17.90;70.80
19654;DHT22;9975;48.046;7.804;2023-03-13T19:13:49;17.70;75.80
19654;DHT22;9975;48.046;7.804;2023-03-13T19:16:21;17.10;84.60
19654;DHT22;9975;48.046;7.804;2023-03-13T19:18:49;17.10;85.40
19654;DHT22;9975;48.046;7.804;2023-03-13T19:21:26;16.70;90.80
19654;DHT22;9975;48.046;7.804;2023-03-13T19:23:53;16.40;96.90
19654;DHT22;9975;48.046;7.804;2023-03-13T19:26:37;16.10;99.90
19654;DHT22;9975;48.046;7.804;2023-03-13T19:29:09;16.10;99.90
19654;DHT22;9975;48.046;7.804;2023-03-13T19:31:36;16.10;99.90
19654;DHT22;9975;48.046;7.804;2023-03-13T19:36:33;15.20;98.40
19654;DHT22;9975;48.046;7.804;2023-03-13T19:38:59;14.40;96.60
19654;DHT22;9975;48.046;7.804;2023-03-13T19:41:25;14.20;97.90
19654;DHT22;9975;48.046;7.804;2023-03-13T19:43:50;13.80;98.30
19654;DHT22;9975;48.046;7.804;2023-03-13T19:46:23;13.80;99.90
19654;DHT22;9975;48.046;7.804;2023-03-13T19:49:00;13.60;99.90
19654;DHT22;9975;48.046;7.804;2023-03-13T19:51:27;15.30;99.90
19654;DHT22;9975;48.046;7.804;2023-03-13T19:53:53;13.10;99.90
19654;DHT22;9975;48.046;7.804;2023-03-13T19:56:22;13.10;99.90
19654;DHT22;9975;48.046;7.804;2023-03-13T19:58:55;13.20;99.90
19654;DHT22;9975;48.046;7.804;2023-03-13T20:01:21;13.30;99.90
19654;DHT22;9975;48.046;7.804;2023-03-13T20:03:46;13.20;99.90
19654;DHT22;9975;48.046;7.804;2023-03-13T20:06:21;13.10;99.90
19654;DHT22;9975;48.046;7.804;2023-03-13T20:08:47;13.00;99.90
19654;DHT22;9975;48.046;7.804;2023-03-13T20:11:14;12.90;99.90
19654;DHT22;9975;48.046;7.804;2023-03-13T20:13:41;12.60;99.90
19654;DHT22;9975;48.046;7.804;2023-03-13T20:16:07;12.40;99.90
19654;DHT22;9975;48.046;7.804;2023-03-13T20:18:35;12.00;99.90
19654;DHT22;9975;48.046;7.804;2023-03-13T20:21:00;11.80;99.90
19654;DHT22;9975;48.046;7.804;2023-03-13T20:23:26;11.80;99.90